Time;durP1;ratioP1;P1;durP2;ratioP2;P2;SDS_P1;SDS_P2;PMS_P1;PMS_P2;Temp;Humidity;BMP_temperature;BMP_pressure;BME280_temperature;BME280_humidity;BME280_pressure;Samples;Min_cycle;Max_cycle;Signal;HPM_P1;HPM_P2
2022/07/07 00:01:56;;;;;;;9.40;9.10;;;16.20;99.90;;;;;;5121175;28;20236;-85
2022/07/07 00:04:25;;;;;;;9.35;9.05;;;16.20;99.90;;;;;;5121163;28;20244;-85
2022/07/07 00:06:53;;;;;;;9.40;9.10;;;16.20;99.90;;;;;;5121948;28;20252;-85
2022/07/07 00:09:20;;;;;;;9.38;9.07;;;16.20;99.90;;;;;;5121689;28;20228;-85
2022/07/07 00:11:48;;;;;;;9.13;8.85;;;16.20;99.90;;;;;;5121896;28;20278;-85
2022/07/07 00:14:16;;;;;;;9.20;8.90;;;16.20;99.90;;;;;;5121949;28;20249;-85
2022/07/07 00:16:43;;;;;;;9.30;9.00;;;16.20;99.90;;;;;;5121429;28;20290;-85
2022/07/07 00:19:11;;;;;;;9.32;9.02;;;16.10;99.90;;;;;;5121821;28;20386;-85
2022/07/07 00:21:40;;;;;;;9.68;9.38;;;16.00;99.90;;;;;;5126756;27;20243;-85
2022/07/07 00:24:08;;;;;;;9.60;9.30;;;16.00;99.90;;;;;;5124874;28;20316;-84
2022/07/07 00:26:36;;;;;;;9.45;9.15;;;16.00;99.90;;;;;;5138819;27;20229;-84
2022/07/07 00:29:03;;;;;;;9.25;8.95;;;15.90;99.90;;;;;;5138830;27;20208;-85
2022/07/07 00:31:31;;;;;;;9.23;8.93;;;15.90;99.90;;;;;;5138782;28;20250;-85
2022/07/07 00:33:58;;;;;;;9.30;9.00;;;15.90;99.90;;;;;;5129436;28;20276;-84
2022/07/07 00:36:26;;;;;;;9.40;9.10;;;15.90;99.90;;;;;;5124487;28;20221;-85
2022/07/07 00:38:55;;;;;;;9.48;9.18;;;15.90;99.90;;;;;;5123048;28;20216;-85
2022/07/07 00:41:23;;;;;;;9.75;9.45;;;15.90;99.90;;;;;;5122143;28;20355;-85
2022/07/07 00:43:50;;;;;;;9.30;9.00;;;15.90;99.90;;;;;;5122165;28;20236;-85
2022/07/07 00:46:23;;;;;;;9.20;8.90;;;15.90;99.90;;;;;;5121714;28;20252;-84
2022/07/07 00:48:51;;;;;;;9.00;8.80;;;15.90;99.90;;;;;;5122471;28;20224;-85
2022/07/07 00:51:18;;;;;;;9.27;8.98;;;15.90;99.90;;;;;;5121633;28;20692;-85
2022/07/07 00:53:46;;;;;;;9.00;8.80;;;15.90;99.90;;;;;;5120629;27;20259;-85
2022/07/07 00:56:15;;;;;;;9.20;8.90;;;15.90;99.90;;;;;;5121085;28;20267;-84
2022/07/07 00:58:42;;;;;;;9.02;8.77;;;16.00;99.90;;;;;;5121548;28;20224;-84
2022/07/07 01:01:10;;;;;;;9.20;8.90;;;15.90;99.90;;;;;;5120897;28;20295;-84
2022/07/07 01:03:40;;;;;;;9.20;8.90;;;15.90;99.90;;;;;;5121022;28;20244;-85
2022/07/07 01:06:08;;;;;;;9.60;9.30;;;15.90;99.90;;;;;;5120611;28;20284;-84
2022/07/07 01:08:37;;;;;;;9.50;9.20;;;15.90;99.90;;;;;;5120196;28;20857;-84
2022/07/07 01:11:04;;;;;;;9.38;9.07;;;15.90;99.90;;;;;;5121124;28;20237;-84
2022/07/07 01:13:33;;;;;;;9.40;9.10;;;15.90;99.90;;;;;;5120274;28;20274;-84
2022/07/07 01:16:01;;;;;;;9.23;8.93;;;15.90;99.90;;;;;;5120121;28;20240;-84
2022/07/07 01:18:28;;;;;;;9.38;9.07;;;15.90;99.90;;;;;;5120731;28;20225;-84
2022/07/07 01:20:57;;;;;;;8.80;8.60;;;15.90;99.90;;;;;;5120839;28;20260;-84
2022/07/07 01:23:28;;;;;;;8.93;8.73;;;15.90;99.90;;;;;;5120140;28;20243;-84
2022/07/07 01:25:55;;;;;;;8.73;8.52;;;15.90;99.90;;;;;;5119994;28;20231;-84
2022/07/07 01:28:23;;;;;;;8.55;8.35;;;15.90;99.90;;;;;;5120215;28;20233;-84
2022/07/07 01:30:50;;;;;;;8.70;8.50;;;15.90;99.90;;;;;;5120601;28;20282;-84
2022/07/07 01:33:18;;;;;;;8.63;8.43;;;15.90;99.90;;;;;;5120973;28;20354;-84
2022/07/07 01:35:46;;;;;;;8.70;8.50;;;15.90;99.90;;;;;;5120072;28;20244;-84
2022/07/07 01:38:13;;;;;;;8.80;8.60;;;15.90;99.90;;;;;;5120302;28;20278;-85
2022/07/07 01:40:42;;;;;;;9.20;8.90;;;15.90;99.90;;;;;;5121083;28;20232;-85
2022/07/07 01:43:10;;;;;;;8.80;8.60;;;15.90;99.90;;;;;;5120314;28;20272;-84
2022/07/07 01:45:37;;;;;;;9.25;8.95;;;15.90;99.90;;;;;;5120180;28;20252;-84
2022/07/07 01:48:05;;;;;;;9.20;8.90;;;15.80;99.90;;;;;;5119598;28;20229;-85
2022/07/07 01:50:33;;;;;;;8.93;8.73;;;15.70;99.90;;;;;;5120764;28;20225;-85
2022/07/07 01:53:01;;;;;;;9.25;8.95;;;15.70;99.90;;;;;;5120041;28;20236;-85
2022/07/07 01:55:28;;;;;;;8.98;8.77;;;15.70;99.90;;;;;;5120280;28;20256;-84
2022/07/07 01:57:57;;;;;;;9.30;9.00;;;15.60;99.90;;;;;;5119495;28;20294;-84
2022/07/07 02:00:25;;;;;;;8.95;8.73;;;15.60;99.90;;;;;;5120180;28;20316;-85
2022/07/07 02:02:52;;;;;;;9.35;9.05;;;15.60;99.90;;;;;;5119705;28;20263;-84
2022/07/07 02:05:20;;;;;;;9.45;9.15;;;15.50;99.90;;;;;;5122306;27;20259;-84
2022/07/07 02:07:48;;;;;;;9.35;9.05;;;15.50;99.90;;;;;;5124063;28;20316;-84
2022/07/07 02:11:12;;;;;;;9.45;9.15;;;15.50;99.90;;;;;;5123874;28;20248;-85
2022/07/07 02:13:06;;;;;;;8.98;8.77;;;15.50;99.90;;;;;;5122890;28;20229;-84
2022/07/07 02:15:33;;;;;;;9.30;9.00;;;15.50;99.90;;;;;;5123622;28;20286;-85
2022/07/07 02:18:01;;;;;;;9.32;9.02;;;15.50;99.90;;;;;;5123648;28;20283;-84
2022/07/07 02:20:29;;;;;;;9.30;9.00;;;15.50;99.90;;;;;;5123837;28;20228;-84
2022/07/07 02:22:56;;;;;;;8.98;8.77;;;15.40;99.90;;;;;;5123254;28;20239;-84
2022/07/07 02:25:24;;;;;;;8.52;8.32;;;15.50;99.90;;;;;;5124066;28;20272;-85
2022/07/07 02:27:55;;;;;;;8.90;8.70;;;15.50;99.90;;;;;;5123215;28;20221;-85
2022/07/07 02:30:24;;;;;;;8.75;8.55;;;15.50;99.90;;;;;;5124299;28;20252;-84
2022/07/07 02:32:52;;;;;;;8.90;8.70;;;15.50;99.90;;;;;;5123809;28;20263;-84
2022/07/07 02:35:20;;;;;;;8.90;8.70;;;15.50;99.90;;;;;;5123678;28;20276;-84
2022/07/07 02:37:49;;;;;;;8.40;8.20;;;15.50;99.90;;;;;;5123854;28;20232;-85
2022/07/07 02:40:17;;;;;;;8.20;8.00;;;15.50;99.90;;;;;;5124015;28;20229;-85
2022/07/07 02:42:45;;;;;;;8.70;8.50;;;15.50;99.90;;;;;;5122782;28;20237;-84
2022/07/07 02:45:13;;;;;;;8.88;8.68;;;15.60;99.90;;;;;;5127537;28;20229;-84
2022/07/07 02:47:42;;;;;;;8.55;8.35;;;15.60;99.90;;;;;;5137663;28;20212;-84
2022/07/07 02:50:10;;;;;;;8.55;8.35;;;15.60;99.90;;;;;;5137115;28;20751;-84
2022/07/07 02:52:37;;;;;;;8.80;8.60;;;15.70;99.90;;;;;;5122307;28;20234;-84
2022/07/07 02:55:09;;;;;;;8.80;8.60;;;15.70;99.90;;;;;;5122206;28;20264;-84
2022/07/07 02:57:37;;;;;;;8.60;8.40;;;15.70;99.90;;;;;;5123221;28;20228;-84
2022/07/07 03:00:06;;;;;;;8.70;8.50;;;15.70;99.90;;;;;;5122356;28;20300;-84
2022/07/07 03:02:34;;;;;;;8.68;8.48;;;15.70;99.90;;;;;;5121983;28;20275;-84
2022/07/07 03:05:03;;;;;;;8.57;8.38;;;15.60;99.90;;;;;;5122127;28;20262;-84
2022/07/07 03:07:30;;;;;;;8.40;8.20;;;15.70;99.90;;;;;;5121985;28;20221;-85
2022/07/07 03:09:58;;;;;;;8.60;8.40;;;15.70;99.90;;;;;;5122114;28;20772;-84
2022/07/07 03:12:25;;;;;;;8.32;8.13;;;15.70;99.90;;;;;;5121545;28;20267;-84
2022/07/07 03:14:53;;;;;;;9.60;9.30;;;15.60;99.90;;;;;;5121771;28;20777;-84
2022/07/07 03:17:20;;;;;;;9.23;8.95;;;15.60;99.90;;;;;;5122125;27;20226;-84
2022/07/07 03:19:48;;;;;;;8.68;8.48;;;15.60;99.90;;;;;;5121573;28;20229;-84
2022/07/07 03:22:17;;;;;;;9.52;9.23;;;15.70;99.90;;;;;;5121332;28;20300;-84
2022/07/07 03:24:45;;;;;;;9.07;8.88;;;15.70;99.90;;;;;;5121033;28;20248;-84
2022/07/07 03:27:13;;;;;;;8.90;8.70;;;15.70;99.90;;;;;;5121467;28;20260;-84
2022/07/07 03:29:40;;;;;;;9.98;9.68;;;15.80;99.90;;;;;;5121651;28;20237;-84
2022/07/07 03:32:09;;;;;;;9.40;9.10;;;15.80;99.90;;;;;;5124132;28;20319;-84
2022/07/07 03:34:37;;;;;;;9.05;8.85;;;15.80;99.90;;;;;;5126686;28;20232;-85
2022/07/07 03:37:06;;;;;;;8.85;8.65;;;15.70;99.90;;;;;;5123208;28;20256;-85
2022/07/07 03:39:35;;;;;;;8.75;8.55;;;15.70;99.90;;;;;;5122079;28;20235;-84
2022/07/07 03:42:03;;;;;;;8.80;8.60;;;15.70;99.90;;;;;;5122100;28;20237;-84
2022/07/07 03:44:30;;;;;;;8.63;8.43;;;15.70;99.90;;;;;;5126840;28;20433;-86
2022/07/07 03:46:58;;;;;;;8.65;8.45;;;15.70;99.90;;;;;;5121755;28;20227;-84
2022/07/07 03:49:25;;;;;;;8.57;8.38;;;15.70;99.90;;;;;;5121310;28;20229;-84
2022/07/07 03:51:53;;;;;;;8.80;8.60;;;15.70;99.90;;;;;;5120818;28;20317;-84
2022/07/07 03:54:21;;;;;;;8.75;8.55;;;15.60;99.90;;;;;;5120714;28;20280;-84
2022/07/07 03:56:50;;;;;;;8.80;8.60;;;15.60;99.90;;;;;;5120740;28;20225;-84
2022/07/07 03:59:17;;;;;;;8.95;8.75;;;15.60;99.90;;;;;;5120768;28;20439;-84
2022/07/07 04:01:45;;;;;;;8.65;8.45;;;15.60;99.90;;;;;;5120670;28;20315;-84
2022/07/07 04:04:14;;;;;;;8.70;8.50;;;15.60;99.90;;;;;;5120689;28;20235;-84
2022/07/07 04:06:42;;;;;;;8.73;8.52;;;15.60;99.90;;;;;;5121269;28;20314;-84
2022/07/07 04:09:13;;;;;;;8.80;8.60;;;15.60;99.90;;;;;;5120937;28;20233;-84
2022/07/07 04:11:40;;;;;;;9.10;8.90;;;15.60;99.90;;;;;;5121491;28;20260;-85
2022/07/07 04:14:12;;;;;;;8.80;8.60;;;15.60;99.90;;;;;;5121475;28;20245;-84
2022/07/07 04:16:40;;;;;;;8.90;8.70;;;15.60;99.90;;;;;;5121373;28;20214;-84
2022/07/07 04:19:07;;;;;;;8.90;8.70;;;15.60;99.90;;;;;;5121888;28;20794;-84
2022/07/07 04:21:35;;;;;;;9.13;8.90;;;15.60;99.90;;;;;;5121099;28;20244;-84
2022/07/07 04:24:02;;;;;;;9.20;8.90;;;15.70;99.90;;;;;;5121215;28;20233;-84
2022/07/07 04:26:30;;;;;;;9.40;9.10;;;15.60;99.90;;;;;;5134092;28;20217;-84
2022/07/07 04:28:57;;;;;;;9.20;8.90;;;15.70;99.90;;;;;;5138752;27;20229;-83
2022/07/07 04:31:27;;;;;;;9.23;8.93;;;15.70;99.90;;;;;;5127359;28;20247;-84
2022/07/07 04:33:54;;;;;;;9.80;9.50;;;15.80;99.90;;;;;;5121082;28;20225;-84
2022/07/07 04:36:22;;;;;;;9.75;9.45;;;15.80;99.90;;;;;;5119732;28;20315;-84
2022/07/07 04:38:49;;;;;;;9.73;9.43;;;15.80;99.90;;;;;;5120099;28;20232;-84
2022/07/07 04:41:17;;;;;;;9.87;9.57;;;15.90;99.90;;;;;;5118299;28;20255;-84
2022/07/07 04:43:44;;;;;;;9.55;9.25;;;15.90;99.90;;;;;;5118383;28;20323;-84
2022/07/07 04:46:12;;;;;;;10.18;9.88;;;15.90;99.90;;;;;;5119311;28;20317;-84
2022/07/07 04:48:41;;;;;;;9.95;9.65;;;15.90;99.90;;;;;;5119639;28;20286;-84
2022/07/07 04:51:09;;;;;;;10.20;9.90;;;15.90;99.90;;;;;;5120631;28;20291;-84
2022/07/07 04:53:36;;;;;;;10.40;10.10;;;15.90;99.90;;;;;;5120164;28;20264;-84
2022/07/07 04:56:05;;;;;;;10.45;10.15;;;15.90;99.90;;;;;;5120415;28;20220;-83
2022/07/07 04:58:34;;;;;;;10.30;10.00;;;15.90;99.90;;;;;;5120298;28;20296;-84
2022/07/07 05:01:02;;;;;;;10.25;9.95;;;15.90;99.90;;;;;;5120437;28;20229;-84
2022/07/07 05:03:30;;;;;;;10.32;10.02;;;16.00;99.90;;;;;;5120374;28;20244;-84
2022/07/07 05:05:59;;;;;;;10.43;10.13;;;16.00;99.90;;;;;;5120215;28;20260;-84
2022/07/07 05:08:30;;;;;;;10.50;10.20;;;16.00;99.90;;;;;;5119973;28;20229;-84
2022/07/07 05:10:59;;;;;;;10.40;10.10;;;16.00;99.90;;;;;;5120757;28;20278;-84
2022/07/07 05:13:27;;;;;;;10.32;10.02;;;16.10;99.90;;;;;;5120291;28;20232;-84
2022/07/07 05:15:54;;;;;;;10.38;10.07;;;16.10;99.90;;;;;;5120579;28;20228;-84
2022/07/07 05:18:23;;;;;;;10.60;10.30;;;16.20;99.90;;;;;;5120418;28;20307;-84
2022/07/07 05:20:51;;;;;;;10.05;9.75;;;16.20;99.90;;;;;;5120609;28;20700;-84
2022/07/07 05:23:20;;;;;;;10.10;9.80;;;16.30;99.90;;;;;;5142748;22;20240;-81
2022/07/07 05:25:47;;;;;;;10.40;10.10;;;16.30;99.90;;;;;;5115397;28;20241;-81
2022/07/07 05:28:15;;;;;;;10.10;9.80;;;16.30;99.90;;;;;;5115794;28;20232;-82
2022/07/07 05:30:42;;;;;;;10.10;9.80;;;16.30;99.90;;;;;;5114420;28;20266;-80
2022/07/07 05:33:10;;;;;;;10.25;9.95;;;16.40;99.90;;;;;;5109288;28;20285;-80
2022/07/07 05:35:40;;;;;;;10.32;10.02;;;16.30;99.90;;;;;;5136240;28;20243;-82
2022/07/07 05:38:08;;;;;;;10.20;9.90;;;16.30;99.90;;;;;;5137594;28;20249;-82
2022/07/07 05:40:37;;;;;;;10.32;10.02;;;16.30;99.90;;;;;;5139477;27;20233;-81
2022/07/07 05:43:04;;;;;;;10.27;9.98;;;16.30;99.90;;;;;;5140061;28;20256;-82
2022/07/07 05:45:32;;;;;;;10.30;10.00;;;16.20;99.90;;;;;;5139280;28;20208;-82
2022/07/07 05:48:00;;;;;;;9.85;9.55;;;16.20;99.90;;;;;;5140585;28;20228;-81
2022/07/07 05:50:27;;;;;;;10.23;9.93;;;16.30;99.90;;;;;;5139729;28;20232;-82
2022/07/07 05:52:55;;;;;;;10.48;10.18;;;16.30;99.90;;;;;;5139905;28;20231;-82
2022/07/07 05:55:23;;;;;;;10.13;9.82;;;16.40;99.90;;;;;;5139494;28;20262;-82
2022/07/07 05:57:52;;;;;;;10.38;10.07;;;16.50;99.90;;;;;;5139981;28;20243;-81
2022/07/07 06:00:19;;;;;;;10.18;9.88;;;16.50;99.90;;;;;;5140459;28;20232;-82
2022/07/07 06:02:47;;;;;;;10.15;9.85;;;16.50;99.90;;;;;;5139277;28;20224;-82
2022/07/07 06:05:14;;;;;;;9.40;9.10;;;16.50;99.90;;;;;;5138467;28;20247;-82
2022/07/07 06:07:42;;;;;;;9.85;9.55;;;16.50;99.90;;;;;;5139556;28;20232;-82
2022/07/07 06:10:11;;;;;;;9.98;9.68;;;16.60;99.90;;;;;;5139697;28;20232;-82
2022/07/07 06:12:39;;;;;;;10.10;9.80;;;16.70;99.90;;;;;;5139930;28;20245;-82
2022/07/07 06:15:10;;;;;;;10.25;9.95;;;16.70;99.90;;;;;;5139597;28;20264;-82
2022/07/07 06:17:48;;;;;;;10.35;10.05;;;16.70;99.90;;;;;;5140426;28;20225;-81
2022/07/07 06:20:15;;;;;;;10.70;10.40;;;16.80;99.90;;;;;;5139190;28;20243;-82
2022/07/07 06:22:43;;;;;;;10.40;10.10;;;16.80;99.90;;;;;;5138895;28;20249;-81
2022/07/07 06:25:11;;;;;;;10.80;10.50;;;16.80;99.90;;;;;;5138761;28;20217;-82
2022/07/07 06:27:39;;;;;;;10.80;10.50;;;16.80;99.90;;;;;;5139716;28;20331;-82
2022/07/07 06:30:17;;;;;;;10.73;10.43;;;16.90;99.90;;;;;;5136605;28;20235;-81
2022/07/07 06:32:44;;;;;;;10.38;10.07;;;16.90;99.90;;;;;;5132176;28;20221;-80
2022/07/07 06:35:12;;;;;;;10.50;10.20;;;16.90;99.90;;;;;;5132139;28;20243;-80
2022/07/07 06:37:40;;;;;;;10.70;10.40;;;16.90;99.90;;;;;;5128918;28;20232;-79
2022/07/07 06:40:09;;;;;;;10.73;10.43;;;16.90;99.90;;;;;;5129132;28;20232;-79
2022/07/07 06:42:36;;;;;;;10.50;10.20;;;16.90;99.90;;;;;;5129557;28;20259;-79
2022/07/07 06:45:05;;;;;;;10.63;10.32;;;17.00;99.90;;;;;;5129376;28;20217;-79
2022/07/07 06:47:34;;;;;;;10.60;10.30;;;17.10;99.90;;;;;;5136949;28;20229;-80
2022/07/07 06:50:01;;;;;;;10.30;10.00;;;17.10;99.90;;;;;;5139184;28;20253;-80
2022/07/07 06:52:29;;;;;;;10.40;10.10;;;17.20;99.90;;;;;;5138356;28;20225;-80
2022/07/07 06:54:57;;;;;;;10.40;10.10;;;17.40;99.90;;;;;;5138098;28;20247;-81
2022/07/07 06:57:25;;;;;;;10.40;10.10;;;17.50;99.90;;;;;;5138093;28;20388;-80
2022/07/07 06:59:52;;;;;;;10.45;10.15;;;17.50;99.90;;;;;;5138548;28;20216;-82
2022/07/07 07:02:20;;;;;;;10.15;9.85;;;17.60;99.90;;;;;;5137827;28;20267;-82
2022/07/07 07:04:50;;;;;;;10.30;10.00;;;17.50;99.90;;;;;;5139548;28;20221;-82
2022/07/07 07:07:18;;;;;;;9.50;9.20;;;17.50;99.90;;;;;;5135621;28;20233;-80
2022/07/07 07:09:45;;;;;;;9.48;9.18;;;17.40;99.90;;;;;;5138415;28;20243;-81
2022/07/07 07:12:13;;;;;;;9.65;9.35;;;17.40;99.90;;;;;;5140222;28;20235;-81
2022/07/07 07:14:40;;;;;;;9.50;9.20;;;17.30;99.90;;;;;;5139271;28;20237;-81
2022/07/07 07:17:08;;;;;;;9.45;9.15;;;17.40;99.90;;;;;;5139990;28;20233;-81
2022/07/07 07:19:36;;;;;;;9.30;9.00;;;17.40;99.90;;;;;;5139013;28;20293;-81
2022/07/07 07:22:05;;;;;;;9.10;8.85;;;17.30;99.90;;;;;;5137926;28;20221;-81
2022/07/07 07:24:33;;;;;;;9.27;8.98;;;17.20;99.90;;;;;;5136230;28;20255;-82
2022/07/07 07:27:00;;;;;;;9.40;9.10;;;17.10;99.90;;;;;;5137378;28;20233;-81
2022/07/07 07:29:28;;;;;;;9.00;8.80;;;16.90;99.90;;;;;;5137179;28;20259;-82
2022/07/07 07:31:55;;;;;;;9.30;9.00;;;16.80;99.90;;;;;;5137437;28;20252;-81
2022/07/07 07:34:23;;;;;;;9.88;9.57;;;16.80;99.90;;;;;;5133987;28;20239;-82
2022/07/07 07:36:50;;;;;;;9.90;9.60;;;16.80;99.90;;;;;;5122280;28;20260;-81
2022/07/07 07:39:19;;;;;;;9.80;9.50;;;16.80;99.90;;;;;;5121969;28;20297;-81
2022/07/07 07:41:47;;;;;;;9.57;9.27;;;16.80;99.90;;;;;;5121873;28;20240;-81
2022/07/07 07:45:09;;;;;;;9.50;9.20;;;16.80;99.90;;;;;;5124762;28;20232;-81
2022/07/07 07:47:02;;;;;;;9.25;8.95;;;16.80;99.90;;;;;;5120699;28;20229;-81
2022/07/07 07:49:30;;;;;;;9.52;9.23;;;16.90;99.90;;;;;;5121126;28;20256;-81
2022/07/07 07:51:57;;;;;;;9.45;9.15;;;16.90;99.90;;;;;;5120683;28;20255;-81
2022/07/07 07:54:26;;;;;;;9.50;9.20;;;16.90;99.90;;;;;;5120599;28;20228;-81
2022/07/07 07:56:54;;;;;;;9.23;8.93;;;16.90;99.90;;;;;;5136811;28;20229;-82
2022/07/07 07:59:21;;;;;;;9.20;8.90;;;16.90;99.90;;;;;;5132745;28;20236;-79
2022/07/07 08:01:49;;;;;;;9.27;8.98;;;16.90;99.90;;;;;;5131703;27;20233;-80
2022/07/07 08:04:16;;;;;;;9.50;9.20;;;16.90;99.90;;;;;;5127920;28;20280;-81
2022/07/07 08:06:44;;;;;;;9.60;9.30;;;17.00;99.90;;;;;;5122867;28;20267;-80
2022/07/07 08:09:11;;;;;;;9.38;9.07;;;17.10;99.90;;;;;;5122210;28;20271;-81
2022/07/07 08:11:40;;;;;;;9.50;9.20;;;17.10;99.90;;;;;;5121941;28;20239;-80
2022/07/07 08:14:08;;;;;;;9.52;9.23;;;17.20;99.90;;;;;;5121373;28;21036;-80
2022/07/07 08:16:36;;;;;;;9.60;9.30;;;17.20;99.90;;;;;;5121217;28;20320;-80
2022/07/07 08:19:04;;;;;;;9.40;9.10;;;17.20;99.90;;;;;;5121318;28;20236;-80
2022/07/07 08:21:31;;;;;;;9.90;9.60;;;17.20;99.90;;;;;;5120458;28;20233;-80
2022/07/07 08:23:59;;;;;;;9.50;9.20;;;17.10;99.90;;;;;;5119965;28;20276;-80
2022/07/07 08:26:27;;;;;;;9.30;9.00;;;17.00;99.90;;;;;;5120579;28;20243;-80
2022/07/07 08:28:56;;;;;;;9.48;9.18;;;16.80;99.90;;;;;;5121059;28;20229;-80
2022/07/07 08:31:23;;;;;;;9.20;8.90;;;16.70;99.90;;;;;;5120206;28;20256;-81
2022/07/07 08:33:51;;;;;;;9.60;9.30;;;16.60;99.90;;;;;;5122151;28;20240;-81
2022/07/07 08:36:18;;;;;;;9.30;9.00;;;16.60;99.90;;;;;;5121529;28;20283;-81
2022/07/07 08:38:46;;;;;;;9.00;8.80;;;16.60;99.90;;;;;;5120075;28;20221;-80
2022/07/07 08:41:15;;;;;;;9.10;8.80;;;16.50;99.90;;;;;;5120303;28;20282;-80
2022/07/07 08:43:42;;;;;;;8.80;8.60;;;16.50;99.90;;;;;;5119622;28;20247;-81
2022/07/07 08:46:12;;;;;;;9.20;8.90;;;16.40;99.90;;;;;;5120420;28;20233;-80
2022/07/07 08:48:39;;;;;;;9.20;8.90;;;16.40;99.90;;;;;;5119930;28;20311;-81
2022/07/07 08:51:09;;;;;;;9.40;9.10;;;16.40;99.90;;;;;;5119992;28;20344;-81
2022/07/07 08:53:38;;;;;;;9.40;9.10;;;16.50;99.90;;;;;;5120203;28;20238;-81
2022/07/07 08:56:08;;;;;;;9.15;8.85;;;16.60;99.90;;;;;;5120130;28;20260;-81
2022/07/07 08:58:36;;;;;;;9.50;9.20;;;16.70;99.90;;;;;;5120909;28;20378;-80
2022/07/07 09:01:04;;;;;;;9.38;9.07;;;16.70;99.90;;;;;;5121484;28;20328;-81
2022/07/07 09:03:33;;;;;;;9.13;8.82;;;16.70;99.90;;;;;;5128920;28;20244;-80
2022/07/07 09:06:02;;;;;;;9.20;8.90;;;16.60;99.90;;;;;;5137253;28;20235;-80
2022/07/07 09:08:33;;;;;;;9.30;9.00;;;16.70;99.90;;;;;;5126804;28;20232;-81
2022/07/07 09:11:00;;;;;;;9.40;9.10;;;16.50;99.90;;;;;;5131332;27;20742;-81
2022/07/07 09:13:30;;;;;;;9.65;9.35;;;16.50;99.90;;;;;;5120470;27;20233;-81
2022/07/07 09:16:02;;;;;;;9.80;9.50;;;16.40;99.90;;;;;;5122941;28;20649;-80
2022/07/07 09:18:33;;;;;;;9.88;9.57;;;16.40;99.90;;;;;;5121325;28;20232;-81
2022/07/07 09:21:02;;;;;;;9.25;8.95;;;16.30;99.90;;;;;;5121140;28;20237;-81
2022/07/07 09:23:30;;;;;;;9.02;8.77;;;16.30;99.90;;;;;;5120710;28;20239;-81
2022/07/07 09:25:58;;;;;;;9.10;8.85;;;16.30;99.90;;;;;;5121174;28;20359;-80
2022/07/07 09:28:27;;;;;;;9.25;8.95;;;16.40;99.90;;;;;;5122477;28;20804;-81
2022/07/07 09:30:56;;;;;;;9.60;9.30;;;16.60;99.90;;;;;;5124284;28;21092;-80
2022/07/07 09:33:26;;;;;;;9.70;9.40;;;16.80;99.90;;;;;;5124426;28;20236;-80
2022/07/07 09:38:43;;;;;;;9.68;9.38;;;16.90;99.90;;;;;;5124770;28;20228;-80
2022/07/07 09:41:15;;;;;;;9.63;9.32;;;17.00;99.90;;;;;;5122072;28;20292;-82
2022/07/07 09:43:48;;;;;;;8.90;8.70;;;17.00;99.90;;;;;;5120999;28;20290;-82
2022/07/07 09:46:18;;;;;;;8.70;8.50;;;16.90;99.90;;;;;;5132309;28;20292;-82
2022/07/07 09:48:49;;;;;;;8.90;8.70;;;16.80;99.90;;;;;;5124914;28;20327;-82
2022/07/07 09:51:26;;;;;;;8.90;8.70;;;16.80;99.90;;;;;;5125547;28;20236;-82
2022/07/07 09:53:59;;;;;;;8.90;8.70;;;16.80;99.90;;;;;;5123804;28;20363;-82
2022/07/07 09:56:29;;;;;;;9.20;8.90;;;16.90;99.90;;;;;;5123701;28;20296;-80
2022/07/07 09:58:57;;;;;;;8.93;8.73;;;16.90;99.90;;;;;;5122800;28;20236;-80
2022/07/07 10:01:33;;;;;;;9.18;8.88;;;16.90;99.90;;;;;;5123434;28;20311;-80
2022/07/07 10:04:04;;;;;;;9.20;8.90;;;17.00;99.90;;;;;;5122821;28;20323;-81
2022/07/07 10:06:35;;;;;;;9.05;8.80;;;17.00;99.90;;;;;;5124513;28;20272;-80
2022/07/07 10:09:05;;;;;;;9.40;9.10;;;17.00;99.90;;;;;;5124088;28;20311;-81
2022/07/07 10:11:40;;;;;;;9.20;8.90;;;17.00;99.90;;;;;;5123931;28;20251;-82
2022/07/07 10:14:15;;;;;;;9.25;8.95;;;17.00;99.90;;;;;;5122641;28;20240;-82
2022/07/07 10:16:45;;;;;;;9.43;9.13;;;17.20;99.90;;;;;;5123600;28;20301;-81
2022/07/07 10:19:16;;;;;;;9.60;9.30;;;17.40;99.90;;;;;;5123684;28;20235;-81
2022/07/07 10:21:46;;;;;;;9.40;9.10;;;17.60;99.90;;;;;;5123598;28;20235;-82
2022/07/07 10:24:16;;;;;;;9.50;9.20;;;17.90;99.90;;;;;;5122850;28;20248;-81
2022/07/07 10:26:49;;;;;;;9.48;9.18;;;18.20;99.90;;;;;;5122285;28;20225;-81
2022/07/07 10:29:16;;;;;;;9.80;9.50;;;18.40;99.90;;;;;;5123436;28;20268;-82
2022/07/07 10:31:51;;;;;;;9.40;9.10;;;18.50;99.90;;;;;;5122646;28;20331;-82
2022/07/07 10:34:19;;;;;;;9.50;9.20;;;18.60;99.90;;;;;;5135791;28;20235;-82
2022/07/07 10:37:09;;;;;;;9.40;9.10;;;18.60;99.90;;;;;;5129329;28;20271;-82
2022/07/07 10:39:43;;;;;;;9.40;9.10;;;18.60;99.90;;;;;;5123666;28;20312;-82
2022/07/07 10:42:50;;;;;;;9.80;9.50;;;18.80;99.90;;;;;;5123837;28;20710;-82
2022/07/07 10:45:18;;;;;;;9.77;9.48;;;18.70;99.90;;;;;;5133204;28;20237;-82
2022/07/07 10:47:46;;;;;;;9.75;9.45;;;18.80;99.90;;;;;;5138184;28;20236;-82
2022/07/07 10:50:32;;;;;;;9.65;9.35;;;18.80;99.90;;;;;;5138898;28;20236;-82
2022/07/07 10:53:02;;;;;;;10.00;9.70;;;18.70;99.90;;;;;;5124745;28;20233;-82
2022/07/07 10:55:52;;;;;;;9.65;9.35;;;18.60;99.90;;;;;;5122554;28;20224;-82
2022/07/07 10:58:58;;;;;;;9.75;9.45;;;18.60;99.90;;;;;;5123543;28;20232;-82
2022/07/07 11:01:29;;;;;;;9.85;9.55;;;18.50;99.90;;;;;;5122953;28;20264;-82
2022/07/07 11:03:56;;;;;;;10.00;9.70;;;18.50;99.90;;;;;;5122323;28;20263;-82
2022/07/07 11:06:24;;;;;;;9.90;9.60;;;18.60;99.90;;;;;;5121800;28;20229;-81
2022/07/07 11:09:04;;;;;;;9.85;9.55;;;18.60;99.90;;;;;;5122241;28;20320;-83
2022/07/07 11:11:31;;;;;;;9.75;9.45;;;18.80;99.90;;;;;;5122254;28;20271;-82
2022/07/07 11:14:11;;;;;;;10.05;9.75;;;18.80;99.90;;;;;;5121729;28;20239;-82
2022/07/07 11:16:40;;;;;;;9.90;9.60;;;18.90;99.90;;;;;;5121727;28;20236;-82
2022/07/07 11:19:10;;;;;;;9.63;9.32;;;19.00;99.90;;;;;;5122032;28;20234;-82
2022/07/07 11:21:44;;;;;;;9.60;9.30;;;19.10;99.90;;;;;;5121943;28;20236;-82
2022/07/07 11:24:31;;;;;;;8.88;8.68;;;19.10;99.90;;;;;;5136875;22;20324;-86
2022/07/07 11:27:04;;;;;;;8.90;8.70;;;19.10;99.90;;;;;;5102375;28;20281;-84
2022/07/07 11:29:34;;;;;;;9.27;8.98;;;19.20;99.90;;;;;;5103340;28;20221;-85
2022/07/07 11:32:05;;;;;;;9.60;9.30;;;19.40;99.90;;;;;;5101860;28;20688;-84
2022/07/07 11:34:49;;;;;;;9.55;9.25;;;19.50;99.90;;;;;;5101571;28;20248;-84
2022/07/07 11:37:27;;;;;;;9.10;8.85;;;19.70;99.90;;;;;;5101345;28;20317;-86
2022/07/07 11:39:57;;;;;;;10.00;9.70;;;19.60;99.90;;;;;;5102600;28;20233;-84
2022/07/07 11:42:25;;;;;;;9.30;9.00;;;19.60;99.90;;;;;;5101780;28;20229;-84
2022/07/07 11:44:52;;;;;;;9.30;9.00;;;19.50;99.90;;;;;;5101104;28;20322;-85
2022/07/07 11:47:20;;;;;;;9.45;9.15;;;19.30;99.90;;;;;;5102459;28;20284;-84
2022/07/07 11:49:48;;;;;;;9.70;9.40;;;19.20;99.90;;;;;;5102423;28;20234;-84
2022/07/07 11:52:16;;;;;;;9.20;8.90;;;19.10;99.90;;;;;;5102112;28;20289;-84
2022/07/07 11:54:48;;;;;;;8.77;8.57;;;19.10;99.90;;;;;;5101828;28;20261;-84
2022/07/07 11:57:29;;;;;;;8.90;8.70;;;19.10;99.90;;;;;;5101984;28;20705;-84
2022/07/07 12:00:13;;;;;;;9.63;9.32;;;19.10;99.90;;;;;;5101411;28;20229;-84
2022/07/07 12:02:42;;;;;;;9.55;9.25;;;19.20;99.90;;;;;;5102212;28;20233;-84
2022/07/07 12:05:10;;;;;;;9.43;9.13;;;19.20;99.90;;;;;;5100966;28;20340;-84
2022/07/07 12:07:39;;;;;;;9.20;8.90;;;19.30;99.90;;;;;;5100995;28;20217;-84
2022/07/07 12:10:20;;;;;;;9.05;8.80;;;19.30;99.90;;;;;;5100840;28;20264;-85
2022/07/07 12:12:58;;;;;;;9.35;9.05;;;19.30;99.90;;;;;;5101541;28;20268;-84
2022/07/07 12:15:28;;;;;;;9.60;9.30;;;19.20;99.90;;;;;;5101108;28;20240;-84
2022/07/07 12:17:57;;;;;;;8.73;8.52;;;19.10;99.90;;;;;;5101026;28;20324;-84
2022/07/07 12:20:25;;;;;;;9.13;8.82;;;19.10;99.90;;;;;;5101735;28;20289;-84
2022/07/07 12:22:55;;;;;;;8.60;8.40;;;19.10;99.90;;;;;;5101583;28;20297;-84
2022/07/07 12:25:27;;;;;;;8.20;8.00;;;19.00;99.90;;;;;;5100740;28;20273;-84
2022/07/07 12:28:01;;;;;;;8.00;7.80;;;18.90;99.90;;;;;;5101343;28;20279;-84
2022/07/07 12:30:30;;;;;;;7.90;7.70;;;18.70;99.90;;;;;;5100681;28;20295;-83
2022/07/07 12:32:59;;;;;;;8.40;8.20;;;18.60;99.90;;;;;;5100996;28;20287;-84
2022/07/07 12:35:35;;;;;;;8.10;7.90;;;18.40;99.90;;;;;;5100258;28;20272;-84
2022/07/07 12:38:04;;;;;;;8.30;8.10;;;18.40;99.90;;;;;;5100567;28;20233;-84
2022/07/07 12:40:34;;;;;;;8.00;7.80;;;18.40;99.90;;;;;;5101460;28;20338;-84
2022/07/07 12:43:11;;;;;;;8.60;8.40;;;18.30;99.90;;;;;;5101322;28;20237;-83
2022/07/07 12:45:42;;;;;;;8.88;8.68;;;18.10;99.90;;;;;;5099640;28;20261;-84
2022/07/07 12:48:19;;;;;;;9.00;8.80;;;18.00;99.90;;;;;;5100277;28;20225;-84
2022/07/07 12:50:47;;;;;;;8.80;8.60;;;17.80;99.90;;;;;;5101440;28;20229;-84
2022/07/07 12:53:16;;;;;;;8.35;8.15;;;17.80;99.90;;;;;;5101437;28;20245;-84
2022/07/07 12:55:46;;;;;;;8.25;8.05;;;17.70;99.90;;;;;;5100635;28;20237;-84
2022/07/07 12:58:24;;;;;;;8.38;8.18;;;17.60;99.90;;;;;;5100273;28;20755;-84